Virtual Washington ARTCC

Weather

KBWI 220954Z 00000KT 9SM -RA BKN080 OVC140 09/09 A2990 RMK AO2 RAB13 SLP125 P0000 T00940089
KDCA 221031Z 27005KT 10SM SCT024 BKN041 OVC090 11/09 A2994 RMK AO2 T01110094
KIAD 220952Z 33004KT 10SM FEW075 SCT090 BKN110 10/06 A2992 RMK AO2 SLP132 T01000061
KORF 220951Z 18004KT 10SM SCT085 BKN110 16/15 A2990 RMK AO2 RAE0852B12E34 SLP124 P0000 T01610150
KRDU 220951Z 07003KT 10SM SCT017 BKN038 BKN065 BKN170 BKN250 11/10 A2994 RMK AO2 SLP137 T01060100

Events



ZDC Activity

No controllers online.

News



The information contained on all pages of this website is to be used for flight simulation purposes only on the VATSIM network. It is not intended nor should it be used for real world navigation.This site is not affiliated with the FAA, the actual Washington Center or any governing aviation body. All content contained herein is approved only for use on the VATSIM network. ©2016 Virtual Washington ARTCC -- Source Code © 2016-2017 W. Guisbond and R. Rump.